Terminal Aerodrome Forecast
Issued by NWS

Home | Current Version | Previous Version | Text Only | Print | Product List | Glossary On
Versions: 1 2 3 4 5 6 7 8 9 10 11 12 13 14 15 16 17 18 19 20
000
FTUS41 KGYX 062322
TAFLEB
TAF
KLEB 062322Z 0700/0724 17004KT P6SM SKC
     FM070600 00000KT 4SM BR SCT250
     FM071200 19005KT 6SM HZ OVC050
     FM071400 20008KT 4SM -SHRA OVC015=

USA.gov is the U.S. government's official web portal to all federal, state and local government web resources and services.